Time;durP1;ratioP1;P1;durP2;ratioP2;P2;SDS_P1;SDS_P2;PMS_P1;PMS_P2;Temp;Humidity;BMP_temperature;BMP_pressure;BME280_temperature;BME280_humidity;BME280_pressure;Samples;Min_cycle;Max_cycle;Signal;HPM_P1;HPM_P2
2021/06/10 00:00:48;;;;;;;;;;;;;;;;;;5030407;28;20516;-71
2021/06/10 00:03:14;;;;;;;;;;;;;;;;;;5031235;28;19905;-71
2021/06/10 00:05:40;;;;;;;;;;;;;;;;;;5031321;28;19912;-71
2021/06/10 00:08:07;;;;;;;;;;;;;;;;;;5030793;28;19940;-71
2021/06/10 00:10:33;;;;;;;;;;;;;;;;;;5013721;28;19916;-71
2021/06/10 00:12:59;;;;;;;;;;;;;;;;;;5011537;28;19905;-70
2021/06/10 00:15:25;;;;;;;;;;;;;;;;;;5011264;28;19905;-71
2021/06/10 00:17:50;;;;;;;;;;;;;;;;;;5011314;28;19924;-71
2021/06/10 00:20:16;;;;;;;;;;;;;;;;;;5013494;28;20343;-71
2021/06/10 00:22:42;;;;;;;;;;;;;;;;;;5031204;28;20292;-72
2021/06/10 00:25:08;;;;;;;;;;;;;;;;;;5030796;28;19999;-71
2021/06/10 00:27:34;;;;;;;;;;;;;;;;;;5029755;28;19913;-72
2021/06/10 00:30:00;;;;;;;;;;;;;;;;;;5029312;28;20012;-71
2021/06/10 00:32:25;;;;;;;;;;;;;;;;;;5021613;28;19905;-72
2021/06/10 00:34:51;;;;;;;;;;;;;;;;;;5018835;28;20591;-71
2021/06/10 00:37:17;;;;;;;;;;;;;;;;;;5029092;28;19913;-71
2021/06/10 00:39:43;;;;;;;;;;;;;;;;;;5030651;28;19988;-72
2021/06/10 00:42:09;;;;;;;;;;;;;;;;;;5029769;28;19981;-72
2021/06/10 00:44:35;;;;;;;;;;;;;;;;;;5030461;28;19917;-71
2021/06/10 00:47:01;;;;;;;;;;;;;;;;;;5030683;28;19951;-71
2021/06/10 00:49:26;;;;;;;;;;;;;;;;;;5020155;28;19921;-71
2021/06/10 00:51:52;;;;;;;;;;;;;;;;;;5011295;28;20389;-71
2021/06/10 00:54:18;;;;;;;;;;;;;;;;;;5016441;28;19920;-71
2021/06/10 00:56:44;;;;;;;;;;;;;;;;;;5030297;28;20392;-72
2021/06/10 00:59:10;;;;;;;;;;;;;;;;;;5034692;28;19927;-72
2021/06/10 01:01:36;;;;;;;;;;;;;;;;;;5025605;28;19975;-71
2021/06/10 01:04:02;;;;;;;;;;;;;;;;;;5015135;28;19909;-71
2021/06/10 01:06:27;;;;;;;;;;;;;;;;;;5014852;28;20332;-72
2021/06/10 01:08:53;;;;;;;;;;;;;;;;;;5015029;28;19931;-72
2021/06/10 01:11:19;;;;;;;;;;;;;;;;;;5016680;28;19956;-71
2021/06/10 01:13:45;;;;;;;;;;;;;;;;;;5023178;28;19921;-72
2021/06/10 01:16:11;;;;;;;;;;;;;;;;;;5019845;28;19906;-72
2021/06/10 01:18:37;;;;;;;;;;;;;;;;;;5013823;28;19910;-71
2021/06/10 01:21:03;;;;;;;;;;;;;;;;;;5015199;28;19909;-72
2021/06/10 01:23:30;;;;;;;;;;;;;;;;;;4996560;28;19913;-71
2021/06/10 01:25:57;;;;;;;;;;;;;;;;;;5022360;28;19956;-71
2021/06/10 01:28:23;;;;;;;;;;;;;;;;;;5034791;28;19905;-71
2021/06/10 01:30:49;;;;;;;;;;;;;;;;;;5033641;28;19905;-71
2021/06/10 01:33:15;;;;;;;;;;;;;;;;;;5034830;28;19905;-71
2021/06/10 01:35:41;;;;;;;;;;;;;;;;;;5034389;28;19905;-71
2021/06/10 01:38:07;;;;;;;;;;;;;;;;;;5032665;28;20269;-71
2021/06/10 01:40:33;;;;;;;;;;;;;;;;;;5033752;28;19941;-70
2021/06/10 01:42:58;;;;;;;;;;;;;;;;;;5034239;28;20332;-70
2021/06/10 01:45:24;;;;;;;;;;;;;;;;;;5034171;28;20359;-71
2021/06/10 01:47:50;;;;;;;;;;;;;;;;;;5033440;28;19909;-70
2021/06/10 01:50:16;;;;;;;;;;;;;;;;;;5024352;28;19920;-71
2021/06/10 01:52:42;;;;;;;;;;;;;;;;;;5014637;28;19909;-72
2021/06/10 01:55:08;;;;;;;;;;;;;;;;;;5014130;28;19902;-72
2021/06/10 01:57:34;;;;;;;;;;;;;;;;;;5001602;28;19917;-72
2021/06/10 02:00:00;;;;;;;;;;;;;;;;;;5033140;28;20007;-71
2021/06/10 02:02:26;;;;;;;;;;;;;;;;;;5022012;28;19915;-71
2021/06/10 02:04:51;;;;;;;;;;;;;;;;;;5013905;28;20016;-71
2021/06/10 02:07:17;;;;;;;;;;;;;;;;;;5013835;28;19909;-71
2021/06/10 02:09:43;;;;;;;;;;;;;;;;;;5012970;28;19905;-71
2021/06/10 02:12:09;;;;;;;;;;;;;;;;;;4996003;28;20396;-71
2021/06/10 02:14:35;;;;;;;;;;;;;;;;;;5026339;28;19909;-71
2021/06/10 02:17:01;;;;;;;;;;;;;;;;;;5016203;28;19948;-72
2021/06/10 02:19:26;;;;;;;;;;;;;;;;;;5031364;28;19909;-72
2021/06/10 02:21:52;;;;;;;;;;;;;;;;;;5033351;28;20404;-71
2021/06/10 02:24:18;;;;;;;;;;;;;;;;;;5033340;28;19905;-72
2021/06/10 02:26:44;;;;;;;;;;;;;;;;;;5022120;28;19975;-72
2021/06/10 02:29:10;;;;;;;;;;;;;;;;;;5013200;28;19912;-72
2021/06/10 02:31:36;;;;;;;;;;;;;;;;;;5013587;28;19909;-71
2021/06/10 02:34:02;;;;;;;;;;;;;;;;;;5013528;28;20270;-71
2021/06/10 02:36:28;;;;;;;;;;;;;;;;;;5013240;28;20000;-71
2021/06/10 02:38:53;;;;;;;;;;;;;;;;;;5025377;28;19928;-72
2021/06/10 02:41:19;;;;;;;;;;;;;;;;;;5032634;28;20003;-71
2021/06/10 02:43:45;;;;;;;;;;;;;;;;;;5032979;28;19905;-72
2021/06/10 02:46:11;;;;;;;;;;;;;;;;;;5032895;28;20011;-72
2021/06/10 02:48:37;;;;;;;;;;;;;;;;;;5029737;28;20277;-71
2021/06/10 02:51:03;;;;;;;;;;;;;;;;;;5062309;22;19929;-71
2021/06/10 02:53:29;;;;;;;;;;;;;;;;;;5053146;28;19954;-71
2021/06/10 02:55:54;;;;;;;;;;;;;;;;;;5053094;28;19904;-68
2021/06/10 02:58:20;;;;;;;;;;;;;;;;;;5052105;28;19916;-69
2021/06/10 03:00:46;;;;;;;;;;;;;;;;;;5052567;28;19993;-69
2021/06/10 03:03:12;;;;;;;;;;;;;;;;;;5052523;28;19916;-70
2021/06/10 03:05:38;;;;;;;;;;;;;;;;;;5052861;28;19911;-70
2021/06/10 03:08:04;;;;;;;;;;;;;;;;;;5052640;28;19912;-70
2021/06/10 03:10:32;;;;;;;;;;;;;;;;;;5052459;28;19904;-72
2021/06/10 03:12:58;;;;;;;;;;;;;;;;;;5052874;28;19955;-72
2021/06/10 03:15:24;;;;;;;;;;;;;;;;;;5034608;28;19912;-70
2021/06/10 03:17:50;;;;;;;;;;;;;;;;;;5052753;28;19912;-69
2021/06/10 03:20:16;;;;;;;;;;;;;;;;;;5051136;28;19915;-68
2021/06/10 03:22:41;;;;;;;;;;;;;;;;;;5052498;28;20448;-69
2021/06/10 03:25:07;;;;;;;;;;;;;;;;;;5052592;28;19927;-70
2021/06/10 03:27:33;;;;;;;;;;;;;;;;;;5052529;28;19905;-68
2021/06/10 03:29:59;;;;;;;;;;;;;;;;;;5052260;28;19908;-71
2021/06/10 03:32:25;;;;;;;;;;;;;;;;;;5052637;28;20003;-70
2021/06/10 03:34:51;;;;;;;;;;;;;;;;;;5052309;28;19905;-72
2021/06/10 03:37:16;;;;;;;;;;;;;;;;;;5051831;28;20450;-70
2021/06/10 03:39:42;;;;;;;;;;;;;;;;;;5052111;28;19905;-70
2021/06/10 03:42:08;;;;;;;;;;;;;;;;;;5052456;28;19908;-70
2021/06/10 03:44:34;;;;;;;;;;;;;;;;;;5052154;28;19917;-70
2021/06/10 03:47:00;;;;;;;;;;;;;;;;;;5052363;28;20432;-70
2021/06/10 03:49:26;;;;;;;;;;;;;;;;;;5051386;28;19904;-70
2021/06/10 03:51:52;;;;;;;;;;;;;;;;;;5051836;28;19916;-68
2021/06/10 03:54:19;;;;;;;;;;;;;;;;;;5051683;28;20352;-68
2021/06/10 03:56:44;;;;;;;;;;;;;;;;;;5052200;28;19939;-68
2021/06/10 03:59:10;;;;;;;;;;;;;;;;;;5051140;28;20333;-67
2021/06/10 04:01:36;;;;;;;;;;;;;;;;;;5051812;28;19905;-70
2021/06/10 04:04:02;;;;;;;;;;;;;;;;;;5051634;28;19999;-72
2021/06/10 04:06:32;;;;;;;;;;;;;;;;;;5051766;28;19908;-69
2021/06/10 04:08:58;;;;;;;;;;;;;;;;;;5051814;28;19908;-72
2021/06/10 04:11:24;;;;;;;;;;;;;;;;;;5050995;28;19916;-69
2021/06/10 04:13:50;;;;;;;;;;;;;;;;;;5033391;28;20380;-71
2021/06/10 04:16:16;;;;;;;;;;;;;;;;;;5051664;28;19928;-70
2021/06/10 04:18:42;;;;;;;;;;;;;;;;;;5050680;28;19913;-69
2021/06/10 04:21:07;;;;;;;;;;;;;;;;;;5051616;28;19909;-69
2021/06/10 04:23:33;;;;;;;;;;;;;;;;;;5051544;28;20352;-63
2021/06/10 04:25:59;;;;;;;;;;;;;;;;;;5045324;28;19908;-63
2021/06/10 04:28:25;;;;;;;;;;;;;;;;;;5040924;28;19915;-59
2021/06/10 04:30:51;;;;;;;;;;;;;;;;;;5039534;28;19913;-64
2021/06/10 04:33:17;;;;;;;;;;;;;;;;;;5046391;28;19909;-65
2021/06/10 04:35:43;;;;;;;;;;;;;;;;;;5041469;28;20379;-63
2021/06/10 04:38:10;;;;;;;;;;;;;;;;;;5042988;28;19916;-66
2021/06/10 04:40:36;;;;;;;;;;;;;;;;;;5036866;28;19917;-62
2021/06/10 04:43:02;;;;;;;;;;;;;;;;;;5040801;28;19967;-64
2021/06/10 04:45:27;;;;;;;;;;;;;;;;;;5042870;28;19944;-65
2021/06/10 04:47:53;;;;;;;;;;;;;;;;;;5045073;28;19904;-64
2021/06/10 04:50:19;;;;;;;;;;;;;;;;;;5050381;28;19919;-62
2021/06/10 04:52:45;;;;;;;;;;;;;;;;;;5050310;28;20040;-67
2021/06/10 04:55:11;;;;;;;;;;;;;;;;;;5051005;28;20009;-65
2021/06/10 04:57:37;;;;;;;;;;;;;;;;;;5050376;28;19924;-74
2021/06/10 05:00:03;;;;;;;;;;;;;;;;;;5048798;28;20293;-75
2021/06/10 05:02:28;;;;;;;;;;;;;;;;;;5047169;28;19955;-75
2021/06/10 05:04:54;;;;;;;;;;;;;;;;;;5050144;28;19905;-74
2021/06/10 05:07:20;;;;;;;;;;;;;;;;;;5047971;28;20384;-75
2021/06/10 05:09:46;;;;;;;;;;;;;;;;;;5045743;28;19909;-75
2021/06/10 05:12:12;;;;;;;;;;;;;;;;;;5039508;28;19916;-75
2021/06/10 05:14:38;;;;;;;;;;;;;;;;;;5043089;28;19950;-75
2021/06/10 05:17:04;;;;;;;;;;;;;;;;;;5041913;28;20306;-74
2021/06/10 05:19:30;;;;;;;;;;;;;;;;;;5044673;28;19940;-75
2021/06/10 05:21:55;;;;;;;;;;;;;;;;;;5041812;28;20407;-75
2021/06/10 05:24:23;;;;;;;;;;;;;;;;;;5036276;28;19925;-73
2021/06/10 05:26:49;;;;;;;;;;;;;;;;;;5040481;28;19971;-72
2021/06/10 05:29:15;;;;;;;;;;;;;;;;;;5046386;28;20336;-70
2021/06/10 05:31:40;;;;;;;;;;;;;;;;;;5050101;28;19994;-70
2021/06/10 05:34:06;;;;;;;;;;;;;;;;;;5050695;28;19927;-71
2021/06/10 05:36:32;;;;;;;;;;;;;;;;;;5050663;28;19911;-72
2021/06/10 05:38:58;;;;;;;;;;;;;;;;;;5049726;28;19916;-73
2021/06/10 05:41:24;;;;;;;;;;;;;;;;;;5050481;28;19911;-74
2021/06/10 05:43:50;;;;;;;;;;;;;;;;;;5050812;28;19948;-71
2021/06/10 05:46:16;;;;;;;;;;;;;;;;;;5053902;28;19916;-71
2021/06/10 05:48:41;;;;;;;;;;;;;;;;;;5053604;28;19916;-73
2021/06/10 05:51:07;;;;;;;;;;;;;;;;;;5053374;28;19999;-69
2021/06/10 05:53:36;;;;;;;;;;;;;;;;;;5052130;28;19943;-75
2021/06/10 05:56:01;;;;;;;;;;;;;;;;;;5051182;28;19916;-71
2021/06/10 05:58:27;;;;;;;;;;;;;;;;;;5053163;28;19912;-71
2021/06/10 06:00:53;;;;;;;;;;;;;;;;;;5052534;28;19999;-71
2021/06/10 06:03:19;;;;;;;;;;;;;;;;;;5054085;28;20362;-72
2021/06/10 06:05:45;;;;;;;;;;;;;;;;;;5053608;28;19909;-73
2021/06/10 06:08:13;;;;;;;;;;;;;;;;;;5053576;28;20321;-72
2021/06/10 06:10:39;;;;;;;;;;;;;;;;;;5053385;28;20394;-72
2021/06/10 06:13:07;;;;;;;;;;;;;;;;;;5053336;28;20053;-71
2021/06/10 06:15:33;;;;;;;;;;;;;;;;;;5050727;28;19931;-72
2021/06/10 06:17:59;;;;;;;;;;;;;;;;;;5042112;28;19941;-73
2021/06/10 06:20:25;;;;;;;;;;;;;;;;;;5055393;28;19935;-71
2021/06/10 06:22:51;;;;;;;;;;;;;;;;;;5059781;28;19923;-71
2021/06/10 06:25:17;;;;;;;;;;;;;;;;;;5034132;28;20345;-71
2021/06/10 06:27:42;;;;;;;;;;;;;;;;;;5043281;28;19924;-70
2021/06/10 06:30:08;;;;;;;;;;;;;;;;;;5040389;28;20233;-71
2021/06/10 06:32:35;;;;;;;;;;;;;;;;;;5058499;28;19929;-70
2021/06/10 06:35:01;;;;;;;;;;;;;;;;;;5070738;28;19922;-70
2021/06/10 06:37:27;;;;;;;;;;;;;;;;;;5059921;28;19993;-70
2021/06/10 06:39:53;;;;;;;;;;;;;;;;;;5059984;28;19971;-69
2021/06/10 06:42:19;;;;;;;;;;;;;;;;;;5060539;28;19929;-69
2021/06/10 06:44:45;;;;;;;;;;;;;;;;;;5059556;28;19936;-69
2021/06/10 06:47:10;;;;;;;;;;;;;;;;;;5048147;28;19925;-72
2021/06/10 06:49:37;;;;;;;;;;;;;;;;;;5042227;28;19952;-71
2021/06/10 06:52:02;;;;;;;;;;;;;;;;;;5060345;28;19918;-69
2021/06/10 06:54:28;;;;;;;;;;;;;;;;;;5059689;28;19923;-70
2021/06/10 06:56:54;;;;;;;;;;;;;;;;;;5060229;28;19964;-74
2021/06/10 06:59:20;;;;;;;;;;;;;;;;;;5057398;28;19951;-73
2021/06/10 07:01:46;;;;;;;;;;;;;;;;;;5040816;28;19922;-70
2021/06/10 07:04:12;;;;;;;;;;;;;;;;;;5052492;28;19923;-72
2021/06/10 07:06:38;;;;;;;;;;;;;;;;;;5053272;28;20205;-71
2021/06/10 07:09:03;;;;;;;;;;;;;;;;;;5052596;28;19925;-72
2021/06/10 07:11:29;;;;;;;;;;;;;;;;;;5053267;28;19925;-70
2021/06/10 07:13:55;;;;;;;;;;;;;;;;;;5058704;28;19909;-69
2021/06/10 07:16:21;;;;;;;;;;;;;;;;;;5059476;28;19909;-71
2021/06/10 07:18:47;;;;;;;;;;;;;;;;;;5058206;28;19912;-72
2021/06/10 07:21:13;;;;;;;;;;;;;;;;;;5047523;28;19904;-71
2021/06/10 07:23:38;;;;;;;;;;;;;;;;;;5055719;28;19959;-70
2021/06/10 07:26:04;;;;;;;;;;;;;;;;;;5053556;28;19908;-68
2021/06/10 07:28:30;;;;;;;;;;;;;;;;;;5052618;28;19995;-70
2021/06/10 07:30:56;;;;;;;;;;;;;;;;;;5050117;28;19913;-71
2021/06/10 07:33:23;;;;;;;;;;;;;;;;;;5047548;28;19912;-71
2021/06/10 07:35:49;;;;;;;;;;;;;;;;;;5051592;28;19908;-70
2021/06/10 07:38:15;;;;;;;;;;;;;;;;;;5053015;28;20476;-69
2021/06/10 07:40:40;;;;;;;;;;;;;;;;;;5045526;28;20433;-70
2021/06/10 07:43:06;;;;;;;;;;;;;;;;;;5057166;28;19979;-71
2021/06/10 07:45:32;;;;;;;;;;;;;;;;;;5059389;28;19927;-69
2021/06/10 07:47:59;;;;;;;;;;;;;;;;;;5041723;28;20031;-70
2021/06/10 07:50:25;;;;;;;;;;;;;;;;;;5058147;28;19953;-69
2021/06/10 07:52:51;;;;;;;;;;;;;;;;;;5058777;28;19959;-73
2021/06/10 07:55:16;;;;;;;;;;;;;;;;;;5058417;28;20371;-71
2021/06/10 07:57:42;;;;;;;;;;;;;;;;;;5058479;28;19945;-71
2021/06/10 08:00:08;;;;;;;;;;;;;;;;;;5040810;28;20052;-71
2021/06/10 08:02:34;;;;;;;;;;;;;;;;;;5059761;28;20013;-70
2021/06/10 08:05:00;;;;;;;;;;;;;;;;;;5059068;28;19938;-72
2021/06/10 08:07:26;;;;;;;;;;;;;;;;;;5049917;28;19996;-70
2021/06/10 08:09:52;;;;;;;;;;;;;;;;;;5050452;28;19952;-70
2021/06/10 08:12:17;;;;;;;;;;;;;;;;;;5052564;28;20140;-71
2021/06/10 08:14:43;;;;;;;;;;;;;;;;;;5053196;28;19939;-70
2021/06/10 08:17:09;;;;;;;;;;;;;;;;;;5054610;28;19931;-73
2021/06/10 08:19:35;;;;;;;;;;;;;;;;;;5050007;28;19943;-73
2021/06/10 08:22:01;;;;;;;;;;;;;;;;;;5051841;28;20401;-74
2021/06/10 08:24:27;;;;;;;;;;;;;;;;;;5047686;28;19927;-72
2021/06/10 08:26:53;;;;;;;;;;;;;;;;;;5050639;28;20351;-70
2021/06/10 08:29:19;;;;;;;;;;;;;;;;;;5049807;28;19930;-72
2021/06/10 08:31:46;;;;;;;;;;;;;;;;;;5050594;28;19956;-72
2021/06/10 08:34:12;;;;;;;;;;;;;;;;;;5049420;28;19916;-72
2021/06/10 08:36:38;;;;;;;;;;;;;;;;;;5050558;28;19917;-70
2021/06/10 08:39:03;;;;;;;;;;;;;;;;;;5045169;28;20007;-71
